Practice 2 - Blue
Course: Road America · 2026-09-05 10:40AM
Weather Conditions
Temp 74°F
(64–74°F range)
Temp type NORMAL
Track DAMP
Precip 0.3 mm (DRIZZLE)
Humidity 85%
Wind 16 km/h
Cloud 74%
OVERALL
BY CLASS
| POS | # | NAME | CLASS | BEST LAP | GAP | INTERVAL | LAPS |
|---|---|---|---|---|---|---|---|
| 1 | 158 | SCOTT GILL | GTD3 | 2:16.609 | - | - | 7 |
| 2 | 111 | NICOLAS GIGUERE | GTD3 | 2:17.462 | 0.853 | 0.853 | 9 |
| 3 | 751 | CHRIS DOOLEY | GTD3 | 2:17.902 | 1.293 | 0.440 | 7 |
| 4 | 194 | KEVIN CYR | GTD3 | 2:18.005 | 1.396 | 0.103 | 7 |
| 5 | 819 | ROBERT GEE | GTD3 | 2:18.884 | 2.275 | 0.879 | 9 |
| 6 | 581 | MARK COOK | GTD3 | 2:18.929 | 2.320 | 0.045 | 8 |
| 7 | 888 | JEFF BRETON | GTD3 | 2:19.230 | 2.621 | 0.301 | 8 |
| 8 | 90 | NICOLE ROBICHAUD | GTD3 | 2:19.973 | 3.364 | 0.743 | 8 |
| 9 | 171 | LARRY WEXLER | GTD3 | 2:21.406 | 4.797 | 1.433 | 6 |
| 10 | 747 | BRAD WEBER | GTD3 | 2:21.953 | 5.344 | 0.547 | 8 |
| 11 | 22 | JOHN EDDLEMON | GTD3 | 2:22.435 | 5.826 | 0.482 | 8 |
| 12 | 62 | COLIN HAUER | GTD2 | 2:23.171 | 6.562 | 0.736 | 8 |
| 13 | 14 | ARTHUR SOLTYS | GTD2 | 2:23.980 | 7.371 | 0.809 | 5 |
| 14 | 224 | KIERON O'ROURKE | GTB3 | 2:24.112 | 7.503 | 0.132 | 8 |
| 15 | 9 | ANGUS ROGERS | GTB1 | 2:24.432 | 7.823 | 0.320 | 8 |
| 16 | 689 | ROBERT BAKER | GT3 | 2:24.796 | 8.187 | 0.364 | 8 |
| 17 | 98 | ED DUNNE | GTB1 | 2:24.943 | 8.334 | 0.147 | 8 |
| 18 | 696 | MIKE ORIGER | GTB1 | 2:24.969 | 8.360 | 0.026 | 7 |
| 19 | 60 | DAVID WELLS | GTD2 | 2:25.142 | 8.533 | 0.173 | 6 |
| 20 | 131 | WESTON JEZEK | SP997 | 2:25.202 | 8.593 | 0.060 | 8 |
| 21 | 079 | CHARLES LEW | GT3 | 2:25.354 | 8.745 | 0.152 | 8 |
| 22 | 726 | RUSSEL MARTORANA | GTB1 | 2:26.469 | 9.860 | 1.115 | 8 |
| 23 | 221 | PIERRE PAQUET | GTD2 | 2:27.242 | 10.633 | 0.773 | 8 |
| 24 | 199 | BOB VAN ZANT | GT3 | 2:27.251 | 10.642 | 0.009 | 8 |
| 25 | 517 | ALEX WILLIAMS | SP996 | 2:27.647 | 11.038 | 0.396 | 8 |
| 26 | 951 | ANDREW BURKE | GTB1 | 2:28.375 | 11.766 | 0.728 | 8 |
| 27 | 93 | MATT DISTEFANO | SPC | 2:30.252 | 13.643 | 1.877 | 3 |
| 28 | 447 | JON DUNSKI | GT3 | 2:30.740 | 14.131 | 0.488 | 8 |
| 29 | 147 | WALEED CHEHADI | SPC | 2:30.816 | 14.207 | 0.076 | 7 |
| 30 | 498 | COLLIN SCHMITZ | GTB1 | 2:31.303 | 14.694 | 0.487 | 7 |
| 31 | 444 | TONY CLINTON | GTB1 | 2:31.951 | 15.342 | 0.648 | 8 |
| 32 | 39 | TIM LAMBIE | SPC | 2:32.163 | 15.554 | 0.212 | 7 |
| 33 | 556 | DOMINICK BELVEDERE | SPC | 2:32.646 | 16.037 | 0.483 | 8 |
| 34 | 122 | MICHAEL VENABLE | SPC | 2:33.241 | 16.632 | 0.595 | 8 |
| 35 | 127 | STEVE GARRISON | GT3 | 2:33.306 | 16.697 | 0.065 | 5 |
| 36 | 719 | TRES DRAWHORN | SPC | 2:33.785 | 17.176 | 0.479 | 7 |
| 37 | 42 | PERRY LOWERY | SPC | 2:34.200 | 17.591 | 0.415 | 8 |
| 38 | 97 | IAN ROGENSKI | SPC | 2:34.955 | 18.346 | 0.755 | 6 |
| 39 | 4 | SAM MAMMANO | GTB1 | 2:36.043 | 19.434 | 1.088 | 8 |
| 40 | 19 | JASON KNUPP | SPC | 2:36.053 | 19.444 | 0.010 | 7 |
| 41 | 5 | PATRICK PERONNET | GT4 | 2:40.502 | 23.893 | 4.449 | 7 |
| 42 | 497 | MICHAEL SCHMITZ | GTB1 | 2:41.773 | 25.164 | 1.271 | 6 |
| 43 | 144 | JEFF ROBINS | GTD1 | - | - | - | 0 |
| 44 | 66 | CLAUDIO KAEMPF | GT4 | - | - | - | 0 |
| 45 | 109 | RYAN SZYJAKOWSKI | GTD2 | - | - | - | 0 |
Session Notes
2026-09-05 10:45AM:
Transponder
Car #144- No Transponder
Pole Position